Time;durP1;ratioP1;P1;durP2;ratioP2;P2;SDS_P1;SDS_P2;PMS_P1;PMS_P2;Temp;Humidity;BMP_temperature;BMP_pressure;BME280_temperature;BME280_humidity;BME280_pressure;Samples;Min_cycle;Max_cycle;Signal;HPM_P1;HPM_P2
2022/06/08 18:36:56;;;;;;;;;6.00;4.50;;;;;;;;5042589;27;2405856;-82
2022/06/08 18:39:21;;;;;;;;;3.25;3.00;;;;;;;;5114397;28;21842;-75
2022/06/08 18:41:47;;;;;;;;;5.00;4.00;;;;;;;;5114879;28;12539;-74
2022/06/08 18:44:13;;;;;;;;;3.75;2.00;;;;;;;;5096518;28;12701;-76
2022/06/08 18:46:40;;;;;;;;;4.50;4.50;;;;;;;;5115486;28;10629;-76
2022/06/08 18:49:06;;;;;;;;;3.00;3.00;;;;;;;;5114904;28;12827;-76
2022/06/08 18:51:31;;;;;;;;;4.67;4.67;;;;;;;;5114965;28;11312;-73
2022/06/08 18:53:57;;;;;;;;;4.67;4.67;;;;;;;;5114332;28;11367;-74
2022/06/08 18:56:24;;;;;;;;;2.00;2.00;;;;;;;;5094432;28;8925;-74
2022/06/08 18:58:50;;;;;;;;;4.00;4.00;;;;;;;;5096722;28;12771;-77
2022/06/08 19:01:19;;;;;;;;;3.00;3.00;;;;;;;;5096663;28;10825;-74
2022/06/08 19:03:44;;;;;;;;;20.00;16.00;;;;;;;;5114365;28;9027;-81
2022/06/08 19:06:10;;;;;;;;;41.75;38.00;;;;;;;;5113414;28;22551;-77
2022/06/08 19:08:36;;;;;;;;;29.00;26.75;;;;;;;;5113902;28;12283;-78
2022/06/08 19:11:02;;;;;;;;;5.00;3.00;;;;;;;;5114752;28;13432;-77
2022/06/08 19:13:28;;;;;;;;;4.00;3.33;;;;;;;;5113583;28;23780;-75
2022/06/08 19:15:54;;;;;;;;;8.00;5.33;;;;;;;;5113587;28;11722;-77
2022/06/08 19:21:03;;;;;;;;;2.00;2.00;;;;;;;;5111797;28;11319;-77
2022/06/08 19:23:31;;;;;;;;;3.00;3.00;;;;;;;;5095269;28;12397;-76
2022/06/08 19:25:58;;;;;;;;;2.00;2.00;;;;;;;;5114156;28;8825;-75
2022/06/08 19:28:23;;;;;;;;;3.33;3.00;;;;;;;;5113898;28;9230;-76
2022/06/08 19:30:49;;;;;;;;;3.00;3.00;;;;;;;;5114318;28;10278;-79
2022/06/08 19:33:16;;;;;;;;;2.00;2.00;;;;;;;;5115396;28;8762;-80
2022/06/08 19:35:42;;;;;;;;;3.00;2.00;;;;;;;;5101509;28;10507;-79
2022/06/08 19:38:07;;;;;;;;;3.33;3.33;;;;;;;;5113363;27;9185;-77
2022/06/08 19:40:34;;;;;;;;;2.00;2.00;;;;;;;;5111910;28;12544;-81
2022/06/08 19:43:00;;;;;;;;;17.00;12.75;;;;;;;;5113892;27;11381;-80
2022/06/08 19:45:25;;;;;;;;;6.67;5.00;;;;;;;;5111825;28;24621;-80
2022/06/08 19:47:53;;;;;;;;;4.00;3.00;;;;;;;;5102755;28;22705;-76
2022/06/08 19:50:19;;;;;;;;;3.33;2.67;;;;;;;;5098595;28;10436;-78
2022/06/08 19:52:44;;;;;;;;;6.00;3.67;;;;;;;;5099845;28;12332;-79
2022/06/08 19:55:10;;;;;;;;;5.00;3.00;;;;;;;;5092836;28;10457;-89
2022/06/08 19:57:36;;;;;;;;;3.33;3.00;;;;;;;;5100310;28;11545;-89
2022/06/08 20:00:02;;;;;;;;;6.67;5.33;;;;;;;;5100888;28;8805;-89
2022/06/08 20:02:28;;;;;;;;;2.00;2.00;;;;;;;;5105513;28;13588;-92
2022/06/08 20:04:53;;;;;;;;;2.00;2.00;;;;;;;;5100608;28;11350;-94
2022/06/08 20:07:19;;;;;;;;;4.00;3.50;;;;;;;;5085030;28;8914;-86
2022/06/08 20:09:45;;;;;;;;;1.00;1.00;;;;;;;;5080451;28;11475;-87
2022/06/08 20:12:13;;;;;;;;;1.00;1.00;;;;;;;;5080099;28;11442;-87
2022/06/08 20:14:38;;;;;;;;;1.33;1.00;;;;;;;;5081061;28;8803;-86
2022/06/08 20:17:05;;;;;;;;;2.00;2.00;;;;;;;;5062280;28;9277;-85
2022/06/08 20:19:31;;;;;;;;;1.50;1.50;;;;;;;;5078465;28;12736;-86
2022/06/08 20:21:56;;;;;;;;;2.00;1.00;;;;;;;;5080014;28;11282;-86
2022/06/08 20:24:22;;;;;;;;;3.25;1.00;;;;;;;;5078747;28;11811;-88
2022/06/08 20:26:47;;;;;;;;;2.00;2.00;;;;;;;;5080645;28;9544;-86
2022/06/08 20:29:12;;;;;;;;;3.00;2.00;;;;;;;;5080357;28;10593;-87
2022/06/08 20:31:39;;;;;;;;;2.00;2.00;;;;;;;;5078981;28;8814;-89
2022/06/08 20:34:04;;;;;;;;;2.00;2.00;;;;;;;;5080845;28;8810;-88
2022/06/08 20:36:30;;;;;;;;;1.33;1.33;;;;;;;;5080117;28;9410;-90
2022/06/08 20:38:55;;;;;;;;;1.33;1.33;;;;;;;;5080613;28;11284;-88
2022/06/08 20:41:20;;;;;;;;;2.33;1.00;;;;;;;;5080705;28;8814;-86
2022/06/08 20:43:46;;;;;;;;;4.25;1.75;;;;;;;;5087324;28;11503;-80
2022/06/08 20:46:11;;;;;;;;;5.00;3.00;;;;;;;;5097685;28;11476;-86
2022/06/08 20:48:39;;;;;;;;;7.25;3.00;;;;;;;;5080413;28;11499;-86
2022/06/08 20:51:05;;;;;;;;;3.00;1.00;;;;;;;;5080496;28;9024;-81
2022/06/08 20:53:31;;;;;;;;;3.00;3.00;;;;;;;;5079934;28;10266;-77
2022/06/08 20:55:56;;;;;;;;;3.67;1.67;;;;;;;;5061059;28;8854;-75
2022/06/08 20:58:22;;;;;;;;;2.00;1.00;;;;;;;;5079035;28;10396;-84
2022/06/08 21:00:49;;;;;;;;;4.00;2.00;;;;;;;;5079478;28;11466;-85
2022/06/08 21:03:17;;;;;;;;;3.67;3.00;;;;;;;;5079559;28;10042;-85
2022/06/08 21:05:43;;;;;;;;;2.33;2.00;;;;;;;;5080462;28;10600;-85
2022/06/08 21:08:09;;;;;;;;;2.33;2.33;;;;;;;;5080836;28;10529;-86
2022/06/08 21:10:35;;;;;;;;;2.33;2.00;;;;;;;;5080743;28;9195;-86
2022/06/08 21:13:00;;;;;;;;;4.00;1.67;;;;;;;;5061663;28;9855;-86
2022/06/08 21:15:26;;;;;;;;;6.00;2.00;;;;;;;;5080247;28;11502;-84
2022/06/08 21:17:51;;;;;;;;;3.33;2.00;;;;;;;;5079867;28;11312;-85
2022/06/08 21:20:17;;;;;;;;;2.33;1.00;;;;;;;;5061506;28;9851;-84
2022/06/08 21:22:43;;;;;;;;;2.00;2.00;;;;;;;;5079621;28;8842;-84
2022/06/08 21:25:10;;;;;;;;;3.00;2.00;;;;;;;;5080193;28;9693;-84
2022/06/08 21:27:36;;;;;;;;;2.00;1.00;;;;;;;;5061392;28;9270;-84
2022/06/08 21:30:01;;;;;;;;;2.00;1.33;;;;;;;;5079289;28;9114;-84
2022/06/08 21:32:27;;;;;;;;;4.00;2.00;;;;;;;;5079530;28;8905;-84
2022/06/08 21:34:52;;;;;;;;;3.67;1.00;;;;;;;;5079885;28;11323;-84
2022/06/08 21:37:17;;;;;;;;;2.00;2.00;;;;;;;;5080437;28;10264;-84
2022/06/08 21:39:43;;;;;;;;;1.00;1.00;;;;;;;;5080085;28;10247;-85
2022/06/08 21:42:08;;;;;;;;;1.00;1.00;;;;;;;;5079838;28;8776;-85
2022/06/08 21:44:33;;;;;;;;;2.00;2.00;;;;;;;;5080027;28;8846;-84
2022/06/08 21:47:01;;;;;;;;;4.00;2.00;;;;;;;;5079619;28;8792;-84
2022/06/08 21:49:26;;;;;;;;;3.00;2.00;;;;;;;;5079780;28;8842;-85
2022/06/08 21:51:53;;;;;;;;;1.50;1.50;;;;;;;;5080408;28;9395;-84
2022/06/08 21:54:18;;;;;;;;;1.00;1.00;;;;;;;;5079352;28;11639;-84
2022/06/08 21:56:44;;;;;;;;;1.00;0.00;;;;;;;;5079272;28;9522;-84
2022/06/08 21:59:11;;;;;;;;;3.25;1.50;;;;;;;;5079222;28;8805;-84
2022/06/08 22:01:38;;;;;;;;;2.75;1.00;;;;;;;;5061326;28;11744;-84
2022/06/08 22:04:03;;;;;;;;;2.50;1.50;;;;;;;;5079179;28;11401;-84
2022/06/08 22:06:28;;;;;;;;;1.00;1.00;;;;;;;;5080004;28;10295;-84
2022/06/08 22:08:55;;;;;;;;;3.00;1.00;;;;;;;;5079193;28;11959;-84
2022/06/08 22:11:23;;;;;;;;;1.50;1.50;;;;;;;;5078658;28;8772;-83
2022/06/08 22:13:48;;;;;;;;;1.00;1.00;;;;;;;;5079114;28;11560;-84
2022/06/08 22:16:15;;;;;;;;;2.25;1.00;;;;;;;;5079063;28;9850;-84
2022/06/08 22:18:40;;;;;;;;;4.25;2.00;;;;;;;;5079168;28;9055;-84
2022/06/08 22:21:07;;;;;;;;;1.00;1.00;;;;;;;;5060493;28;10244;-84
2022/06/08 22:23:33;;;;;;;;;2.75;1.75;;;;;;;;5079007;28;10576;-84
2022/06/08 22:25:59;;;;;;;;;2.00;1.00;;;;;;;;5060735;28;11458;-84
2022/06/08 22:28:24;;;;;;;;;1.25;0.00;;;;;;;;5060627;28;9878;-84
2022/06/08 22:30:50;;;;;;;;;4.00;2.00;;;;;;;;5060561;28;12322;-84
2022/06/08 22:33:15;;;;;;;;;1.75;1.75;;;;;;;;5060848;28;10790;-83
2022/06/08 22:35:41;;;;;;;;;3.75;3.00;;;;;;;;5078427;28;11435;-88
2022/06/08 22:38:08;;;;;;;;;3.75;1.75;;;;;;;;5080173;28;11451;-87
2022/06/08 22:40:34;;;;;;;;;4.75;1.75;;;;;;;;5061006;28;11188;-88
2022/06/08 22:42:59;;;;;;;;;3.00;2.00;;;;;;;;5079072;28;9871;-86
2022/06/08 22:45:26;;;;;;;;;1.00;1.00;;;;;;;;5079125;28;11371;-86
2022/06/08 22:47:51;;;;;;;;;3.25;1.00;;;;;;;;5061154;28;10601;-86
2022/06/08 22:50:19;;;;;;;;;4.25;1.50;;;;;;;;5061326;28;9799;-87
2022/06/08 22:52:44;;;;;;;;;2.00;1.00;;;;;;;;5080083;28;12600;-86
2022/06/08 22:55:13;;;;;;;;;1.25;1.00;;;;;;;;5080128;28;11354;-86
2022/06/08 22:57:38;;;;;;;;;1.75;1.50;;;;;;;;5061585;28;10839;-86
2022/06/08 23:00:05;;;;;;;;;2.00;1.25;;;;;;;;5079623;28;9829;-86
2022/06/08 23:02:32;;;;;;;;;2.00;1.00;;;;;;;;5079605;28;11377;-87
2022/06/08 23:04:57;;;;;;;;;1.00;1.00;;;;;;;;5061434;28;9852;-85
2022/06/08 23:07:25;;;;;;;;;2.25;1.00;;;;;;;;5079652;28;9940;-85
2022/06/08 23:09:51;;;;;;;;;3.00;1.75;;;;;;;;5079902;28;8872;-85
2022/06/08 23:12:16;;;;;;;;;1.00;1.00;;;;;;;;5079710;28;11321;-85
2022/06/08 23:14:42;;;;;;;;;3.50;2.00;;;;;;;;5060533;28;13299;-84
2022/06/08 23:22:35;;;;;;;;;0.75;0.75;;;;;;;;5105014;28;9874;-81
2022/06/08 23:25:00;;;;;;;;;1.00;1.00;;;;;;;;5083980;28;11342;-85
2022/06/08 23:27:26;;;;;;;;;3.25;2.00;;;;;;;;5083541;28;11311;-84
2022/06/08 23:29:51;;;;;;;;;3.00;1.00;;;;;;;;5105873;28;10427;-85
2022/06/08 23:32:17;;;;;;;;;3.00;1.25;;;;;;;;5105890;28;9470;-84
2022/06/08 23:34:43;;;;;;;;;2.50;1.00;;;;;;;;5083035;28;8773;-85
2022/06/08 23:37:08;;;;;;;;;1.75;1.75;;;;;;;;5064445;28;11775;-85
2022/06/08 23:39:34;;;;;;;;;3.00;2.00;;;;;;;;5082560;28;11786;-85
2022/06/08 23:41:59;;;;;;;;;3.25;1.00;;;;;;;;5082736;28;11549;-85
2022/06/08 23:44:25;;;;;;;;;2.00;1.00;;;;;;;;5082658;28;9962;-85
2022/06/08 23:46:51;;;;;;;;;2.25;1.50;;;;;;;;5082572;28;8784;-85
2022/06/08 23:49:17;;;;;;;;;1.00;1.00;;;;;;;;5063893;28;10493;-85
2022/06/08 23:51:42;;;;;;;;;2.00;1.00;;;;;;;;5081984;28;11276;-86
2022/06/08 23:54:07;;;;;;;;;4.75;1.25;;;;;;;;5063626;28;8871;-85
2022/06/08 23:56:34;;;;;;;;;3.75;1.00;;;;;;;;5082422;28;11295;-86
2022/06/08 23:58:59;;;;;;;;;3.75;1.25;;;;;;;;5063783;28;14737;-86
